Time;durP1;ratioP1;P1;durP2;ratioP2;P2;SDS_P1;SDS_P2;PMS_P1;PMS_P2;Temp;Humidity;BMP_temperature;BMP_pressure;BME280_temperature;BME280_humidity;BME280_pressure;Samples;Min_cycle;Max_cycle;Signal;HPM_P1;HPM_P2
2021/07/19 00:01:17;;;;;;;8.38;3.40;;;20.50;78.60;;;;;;3546134;40;20433;-65
2021/07/19 00:03:42;;;;;;;6.95;3.78;;;20.60;78.70;;;;;;3547149;40;20096;-66
2021/07/19 00:06:08;;;;;;;5.15;3.45;;;20.60;79.00;;;;;;3545470;40;20616;-66
2021/07/19 00:08:34;;;;;;;7.55;3.85;;;20.60;78.20;;;;;;3546655;40;20034;-66
2021/07/19 00:10:59;;;;;;;6.47;3.80;;;20.60;77.20;;;;;;3545589;40;20528;-65
2021/07/19 00:13:25;;;;;;;8.65;4.00;;;20.70;76.10;;;;;;3548592;40;20150;-66
2021/07/19 00:15:51;;;;;;;4.72;3.60;;;20.60;76.70;;;;;;3546884;40;20129;-66
2021/07/19 00:18:17;;;;;;;7.63;4.25;;;20.60;76.10;;;;;;3544041;40;20050;-66
2021/07/19 00:20:43;;;;;;;7.55;4.30;;;20.50;76.00;;;;;;3545850;40;20029;-65
2021/07/19 00:23:08;;;;;;;6.05;4.00;;;20.50;75.70;;;;;;3545315;40;20022;-66
2021/07/19 00:25:34;;;;;;;7.45;4.30;;;20.60;75.80;;;;;;3546133;40;20061;-66
2021/07/19 00:28:00;;;;;;;7.50;4.28;;;20.60;74.50;;;;;;3548172;40;20713;-65
2021/07/19 00:30:26;;;;;;;10.80;4.10;;;20.60;73.80;;;;;;3546234;40;20077;-65
2021/07/19 00:32:55;;;;;;;6.20;4.20;;;20.60;73.30;;;;;;3545918;40;20607;-66
2021/07/19 00:35:21;;;;;;;9.07;4.70;;;20.60;72.20;;;;;;3544809;40;20038;-66
2021/07/19 00:37:47;;;;;;;7.05;4.80;;;20.60;71.40;;;;;;3544392;40;20164;-66
2021/07/19 00:40:16;;;;;;;8.05;4.72;;;20.60;70.80;;;;;;3544542;40;20484;-65
2021/07/19 00:42:44;;;;;;;8.38;4.38;;;20.60;71.30;;;;;;3544997;40;20135;-66
2021/07/19 00:45:19;;;;;;;8.95;4.95;;;20.60;69.80;;;;;;3544624;40;20053;-66
2021/07/19 00:47:47;;;;;;;8.23;4.63;;;20.60;70.60;;;;;;3543936;40;20045;-66
2021/07/19 00:50:13;;;;;;;8.18;4.57;;;20.60;69.60;;;;;;3544837;40;20104;-66
2021/07/19 00:52:41;;;;;;;6.53;4.07;;;20.60;70.40;;;;;;3551140;40;20034;-66
2021/07/19 00:55:10;;;;;;;8.55;4.05;;;20.60;70.00;;;;;;3548071;40;20038;-66
2021/07/19 00:57:38;;;;;;;8.65;4.60;;;20.70;69.70;;;;;;3540553;40;20169;-66
2021/07/19 01:00:09;;;;;;;11.80;4.50;;;20.60;69.80;;;;;;3543875;40;20066;-65
2021/07/19 01:02:46;;;;;;;10.68;4.63;;;20.60;69.80;;;;;;3534505;40;20042;-65
2021/07/19 01:05:13;;;;;;;6.68;4.72;;;20.60;69.50;;;;;;3545011;40;20066;-65
2021/07/19 01:07:40;;;;;;;11.35;4.72;;;20.60;69.40;;;;;;3547850;40;20308;-66
2021/07/19 01:10:13;;;;;;;7.57;4.28;;;20.50;69.50;;;;;;3544881;40;20071;-66
2021/07/19 01:12:42;;;;;;;7.05;4.30;;;20.50;69.90;;;;;;3544615;40;20408;-66
2021/07/19 01:15:08;;;;;;;7.78;3.97;;;20.50;69.30;;;;;;3544700;40;20124;-66
2021/07/19 01:17:36;;;;;;;5.50;3.30;;;20.50;68.50;;;;;;3543030;40;20030;-66
2021/07/19 01:20:03;;;;;;;11.43;4.28;;;20.40;68.10;;;;;;3545395;40;20643;-66
2021/07/19 01:22:35;;;;;;;7.45;4.07;;;20.40;68.30;;;;;;3547626;40;20026;-66
2021/07/19 01:25:12;;;;;;;10.65;4.75;;;20.30;68.50;;;;;;3544888;40;20059;-66
2021/07/19 01:28:04;;;;;;;8.43;4.50;;;20.30;68.70;;;;;;3545991;40;20506;-66
2021/07/19 01:30:32;;;;;;;7.90;3.92;;;20.20;69.10;;;;;;3546862;40;20060;-66
2021/07/19 01:33:01;;;;;;;7.68;4.15;;;20.20;69.10;;;;;;3547928;40;20045;-66
2021/07/19 01:35:32;;;;;;;10.57;4.32;;;20.10;68.90;;;;;;3545374;40;20074;-66
2021/07/19 01:37:59;;;;;;;8.93;4.78;;;20.10;69.10;;;;;;3547498;40;20065;-65
2021/07/19 01:40:33;;;;;;;6.72;4.50;;;20.00;69.50;;;;;;3546490;40;20426;-67
2021/07/19 01:43:00;;;;;;;11.65;4.18;;;20.00;70.10;;;;;;3547948;40;20034;-66
2021/07/19 01:45:28;;;;;;;14.10;5.07;;;20.00;69.80;;;;;;3544714;40;20659;-66
2021/07/19 01:47:56;;;;;;;9.77;4.68;;;20.00;69.80;;;;;;3549748;40;20905;-66
2021/07/19 01:50:22;;;;;;;8.13;4.22;;;19.90;70.60;;;;;;3547540;40;20053;-66
2021/07/19 01:53:16;;;;;;;12.23;4.30;;;19.90;70.40;;;;;;3546899;40;20218;-66
2021/07/19 01:55:43;;;;;;;9.15;4.55;;;19.80;70.50;;;;;;3546685;40;20034;-65
2021/07/19 01:58:12;;;;;;;10.13;4.88;;;19.80;71.40;;;;;;3546910;40;20054;-65
2021/07/19 02:00:43;;;;;;;10.18;4.80;;;19.70;71.30;;;;;;3550147;40;20037;-66
2021/07/19 02:03:11;;;;;;;14.65;4.72;;;19.70;71.80;;;;;;3546067;40;20038;-66
2021/07/19 02:05:44;;;;;;;13.88;5.07;;;19.60;72.00;;;;;;3549279;40;20037;-66
2021/07/19 02:08:16;;;;;;;8.60;4.88;;;19.50;72.10;;;;;;3549149;40;20036;-66
2021/07/19 02:10:56;;;;;;;8.95;5.13;;;19.40;72.70;;;;;;3544791;40;20136;-66
2021/07/19 02:13:27;;;;;;;8.95;4.65;;;19.30;72.80;;;;;;3545143;40;20323;-66
2021/07/19 02:15:57;;;;;;;9.98;5.18;;;19.20;73.40;;;;;;3546962;40;20726;-66
2021/07/19 02:18:27;;;;;;;10.60;4.38;;;19.10;73.70;;;;;;3547721;40;20050;-66
2021/07/19 02:20:55;;;;;;;11.80;5.03;;;19.10;73.60;;;;;;3549151;40;20097;-66
2021/07/19 02:23:24;;;;;;;9.93;4.63;;;18.90;73.60;;;;;;3548655;40;20619;-66
2021/07/19 02:26:01;;;;;;;13.85;4.47;;;18.80;73.80;;;;;;3548951;40;20042;-65
2021/07/19 02:28:29;;;;;;;10.48;4.38;;;18.80;73.40;;;;;;3552717;40;20042;-66
2021/07/19 02:30:57;;;;;;;9.82;3.97;;;18.80;72.90;;;;;;3549445;40;20403;-66
2021/07/19 02:33:24;;;;;;;9.00;4.05;;;18.70;72.10;;;;;;3548909;40;20030;-66
2021/07/19 02:35:53;;;;;;;12.75;4.63;;;18.60;72.60;;;;;;3547010;40;20038;-66
2021/07/19 02:38:26;;;;;;;7.85;3.90;;;18.50;72.40;;;;;;3548703;40;20030;-65
2021/07/19 02:41:01;;;;;;;9.38;4.03;;;18.50;72.80;;;;;;3549246;40;20812;-68
2021/07/19 02:43:30;;;;;;;10.20;4.15;;;18.40;73.20;;;;;;3548937;40;20034;-66
2021/07/19 02:45:59;;;;;;;10.40;4.28;;;18.30;73.50;;;;;;3548322;40;20066;-66
2021/07/19 02:48:36;;;;;;;12.00;4.00;;;18.30;73.80;;;;;;3550193;40;20505;-66
2021/07/19 02:51:03;;;;;;;12.73;4.18;;;18.20;73.40;;;;;;3547410;40;20116;-66
2021/07/19 02:53:31;;;;;;;10.00;4.03;;;18.10;73.60;;;;;;3547019;40;20315;-66
2021/07/19 02:55:59;;;;;;;8.40;3.33;;;18.00;73.80;;;;;;3546955;40;20447;-66
2021/07/19 02:58:29;;;;;;;16.02;3.80;;;18.00;75.00;;;;;;3547890;40;20396;-66
2021/07/19 03:00:56;;;;;;;9.80;3.78;;;17.90;74.00;;;;;;3546697;40;20335;-66
2021/07/19 03:03:32;;;;;;;12.00;3.28;;;17.90;73.00;;;;;;3547480;40;20108;-66
2021/07/19 03:06:08;;;;;;;11.18;3.67;;;17.90;72.70;;;;;;3548888;40;20038;-66
2021/07/19 03:08:38;;;;;;;10.15;3.05;;;17.80;72.70;;;;;;3547973;40;20062;-65
2021/07/19 03:11:10;;;;;;;10.18;3.17;;;17.70;72.60;;;;;;3546069;40;20038;-66
2021/07/19 03:13:39;;;;;;;13.65;2.97;;;17.70;71.90;;;;;;3549921;40;20078;-66
2021/07/19 03:16:08;;;;;;;8.05;3.15;;;17.70;72.70;;;;;;3537247;40;20097;-66
2021/07/19 03:18:40;;;;;;;16.17;3.80;;;17.60;73.00;;;;;;3546171;40;20034;-66
2021/07/19 03:21:07;;;;;;;12.27;3.15;;;17.60;73.70;;;;;;3546658;40;20015;-66
2021/07/19 03:23:37;;;;;;;12.38;3.83;;;17.50;73.50;;;;;;3547238;40;20344;-66
2021/07/19 03:26:06;;;;;;;10.15;3.35;;;17.50;73.50;;;;;;3540300;40;20034;-66
2021/07/19 03:28:35;;;;;;;9.23;3.40;;;17.40;74.10;;;;;;3548485;40;20088;-66
2021/07/19 03:31:02;;;;;;;11.63;3.28;;;17.40;73.50;;;;;;3546840;40;20070;-66
2021/07/19 03:33:28;;;;;;;9.93;3.20;;;17.40;73.80;;;;;;3545960;40;20034;-66
2021/07/19 03:35:55;;;;;;;16.00;3.50;;;17.40;73.80;;;;;;3548281;40;20152;-66
2021/07/19 03:38:23;;;;;;;11.07;3.47;;;17.40;73.90;;;;;;3547007;40;20303;-66
2021/07/19 03:41:17;;;;;;;9.73;2.75;;;17.40;74.00;;;;;;3545491;40;20082;-66
2021/07/19 03:43:46;;;;;;;13.15;3.38;;;17.40;73.30;;;;;;3547267;40;20038;-66
2021/07/19 03:46:13;;;;;;;9.43;3.55;;;17.40;73.90;;;;;;3545043;40;20076;-66
2021/07/19 03:48:39;;;;;;;12.93;3.25;;;17.40;73.70;;;;;;3547674;40;20331;-66
2021/07/19 03:51:06;;;;;;;10.35;3.28;;;17.50;73.80;;;;;;3547480;40;20037;-66
2021/07/19 03:53:33;;;;;;;12.32;3.40;;;17.50;73.60;;;;;;3549055;40;20097;-66
2021/07/19 03:56:00;;;;;;;11.93;3.25;;;17.50;73.00;;;;;;3544368;40;20035;-66
2021/07/19 03:58:26;;;;;;;9.93;2.88;;;17.60;73.10;;;;;;3544899;40;20417;-66
2021/07/19 04:00:57;;;;;;;15.35;3.35;;;17.70;72.50;;;;;;3544925;40;20050;-66
2021/07/19 04:03:27;;;;;;;11.00;3.35;;;17.70;72.30;;;;;;3546734;40;20041;-66
2021/07/19 04:06:02;;;;;;;9.32;3.10;;;17.80;71.90;;;;;;3547454;40;20396;-66
2021/07/19 04:08:50;;;;;;;12.43;2.75;;;17.80;71.80;;;;;;3548998;40;20050;-67
2021/07/19 04:11:20;;;;;;;11.13;3.80;;;17.90;71.20;;;;;;3548530;40;20039;-66
2021/07/19 04:13:50;;;;;;;9.27;3.10;;;17.90;71.60;;;;;;3547322;40;20034;-66
2021/07/19 04:16:21;;;;;;;9.45;3.00;;;17.80;71.20;;;;;;3549645;40;20043;-65
2021/07/19 04:18:51;;;;;;;11.18;3.38;;;17.80;70.70;;;;;;3548962;40;20076;-65
2021/07/19 04:21:19;;;;;;;8.38;3.03;;;17.80;70.80;;;;;;3548025;40;20029;-65
2021/07/19 04:23:45;;;;;;;11.07;3.22;;;17.80;70.30;;;;;;3549860;40;20034;-65
2021/07/19 04:26:16;;;;;;;11.02;2.97;;;17.80;70.70;;;;;;3549462;40;20046;-65
2021/07/19 04:28:44;;;;;;;10.18;3.53;;;17.80;70.50;;;;;;3548380;40;20042;-65
2021/07/19 04:31:16;;;;;;;11.55;3.22;;;17.80;70.10;;;;;;3547492;40;20031;-65
2021/07/19 04:33:49;;;;;;;10.25;3.03;;;17.80;68.90;;;;;;3548313;40;20701;-65
2021/07/19 04:36:20;;;;;;;9.23;2.38;;;17.80;69.20;;;;;;3548990;40;20053;-65
2021/07/19 04:38:46;;;;;;;5.60;2.75;;;17.80;69.00;;;;;;3549337;40;20069;-66
2021/07/19 04:41:17;;;;;;;15.88;3.58;;;17.90;69.20;;;;;;3548031;40;20431;-65
2021/07/19 04:43:43;;;;;;;10.25;3.28;;;17.90;69.60;;;;;;3546671;40;20037;-65
2021/07/19 04:46:08;;;;;;;11.65;3.25;;;17.90;68.80;;;;;;3545237;40;20050;-65
2021/07/19 04:48:34;;;;;;;10.50;3.85;;;17.90;69.20;;;;;;3542596;40;20170;-66
2021/07/19 04:51:00;;;;;;;9.55;3.15;;;17.90;69.20;;;;;;3544584;40;20046;-65
2021/07/19 04:53:26;;;;;;;8.75;3.30;;;18.00;69.30;;;;;;3545581;40;20041;-65
2021/07/19 04:55:53;;;;;;;9.30;3.25;;;18.00;68.30;;;;;;3545961;40;20626;-65
2021/07/19 04:58:24;;;;;;;10.98;3.50;;;18.10;68.60;;;;;;3547029;40;20037;-65
2021/07/19 05:01:03;;;;;;;9.52;3.38;;;18.10;68.40;;;;;;3548932;40;20038;-66
2021/07/19 05:03:34;;;;;;;11.45;3.58;;;18.10;68.80;;;;;;3545802;40;20037;-65
2021/07/19 05:06:00;;;;;;;5.93;3.13;;;18.20;68.70;;;;;;3547350;40;20022;-65
2021/07/19 05:08:27;;;;;;;8.90;3.05;;;18.20;68.40;;;;;;3546837;40;20042;-65
2021/07/19 05:10:54;;;;;;;7.68;3.17;;;18.30;67.60;;;;;;3546896;40;20061;-65
2021/07/19 05:13:22;;;;;;;8.70;3.35;;;18.30;66.00;;;;;;3548380;40;20135;-66
2021/07/19 05:15:48;;;;;;;11.73;3.58;;;18.30;67.70;;;;;;3547794;40;20030;-66
2021/07/19 05:18:18;;;;;;;10.55;3.63;;;18.30;67.00;;;;;;3549992;40;20124;-66
2021/07/19 05:20:45;;;;;;;9.38;3.63;;;18.30;67.60;;;;;;3548102;40;20046;-65
2021/07/19 05:23:11;;;;;;;6.35;3.20;;;18.40;67.40;;;;;;3549317;40;20089;-65
2021/07/19 05:25:37;;;;;;;8.10;3.38;;;18.40;66.80;;;;;;3547368;40;20030;-66
2021/07/19 05:28:06;;;;;;;8.52;3.50;;;18.40;66.40;;;;;;3545872;40;20747;-65
2021/07/19 05:30:33;;;;;;;10.80;3.38;;;18.50;66.90;;;;;;3545530;40;20037;-65
2021/07/19 05:32:58;;;;;;;13.35;4.05;;;18.50;67.30;;;;;;3546062;40;20031;-65
2021/07/19 05:35:24;;;;;;;11.23;3.53;;;18.60;66.90;;;;;;3545500;40;20030;-65
2021/07/19 05:37:50;;;;;;;12.23;3.88;;;18.60;66.00;;;;;;3545711;40;20030;-65
2021/07/19 05:40:17;;;;;;;10.50;3.80;;;18.70;64.90;;;;;;3543635;40;20070;-66
2021/07/19 05:42:43;;;;;;;8.60;4.07;;;18.70;65.90;;;;;;3549163;40;20118;-65
2021/07/19 05:45:10;;;;;;;12.57;4.03;;;18.80;64.00;;;;;;3548532;40;20058;-66
2021/07/19 05:47:36;;;;;;;9.50;3.85;;;18.80;65.20;;;;;;3547665;40;20500;-66
2021/07/19 05:50:04;;;;;;;10.05;4.15;;;18.80;64.50;;;;;;3546216;40;20589;-66
2021/07/19 05:52:29;;;;;;;16.35;4.50;;;18.70;65.10;;;;;;3545335;40;20799;-65
2021/07/19 05:54:58;;;;;;;6.18;3.90;;;18.80;65.20;;;;;;3547794;40;20046;-65
2021/07/19 05:57:28;;;;;;;10.20;4.20;;;18.90;65.60;;;;;;3549957;40;20027;-65
2021/07/19 05:59:57;;;;;;;7.78;4.05;;;19.00;65.60;;;;;;3549598;40;20038;-65
2021/07/19 06:02:26;;;;;;;10.65;4.32;;;19.00;65.30;;;;;;3549433;40;20432;-66
2021/07/19 06:04:53;;;;;;;11.30;4.35;;;19.10;65.20;;;;;;3550548;40;20038;-66
2021/07/19 06:07:19;;;;;;;9.48;3.80;;;19.20;64.10;;;;;;3548162;40;20045;-66
2021/07/19 06:09:45;;;;;;;13.57;4.97;;;19.20;64.10;;;;;;3546701;40;20026;-66
2021/07/19 06:12:11;;;;;;;11.85;4.22;;;19.20;64.60;;;;;;3546146;40;20038;-65
2021/07/19 06:14:37;;;;;;;11.65;4.50;;;19.30;64.70;;;;;;3547363;40;20022;-66
2021/07/19 06:17:03;;;;;;;9.50;4.45;;;19.30;64.80;;;;;;3549693;40;20128;-67
2021/07/19 06:19:29;;;;;;;9.25;4.13;;;19.40;64.40;;;;;;3547454;40;20493;-66
2021/07/19 06:21:55;;;;;;;11.43;4.68;;;19.50;64.30;;;;;;3549185;40;20418;-66
2021/07/19 06:24:21;;;;;;;9.75;4.13;;;19.70;63.90;;;;;;3548170;40;20034;-66
2021/07/19 06:26:47;;;;;;;8.65;4.40;;;19.70;63.00;;;;;;3550317;40;20026;-66
2021/07/19 06:29:13;;;;;;;9.23;4.13;;;19.90;63.00;;;;;;3547582;40;20037;-66
2021/07/19 06:31:39;;;;;;;12.95;4.15;;;19.90;62.10;;;;;;3548842;40;20038;-67
2021/07/19 06:34:04;;;;;;;14.05;5.13;;;19.80;62.30;;;;;;3548892;40;20034;-65
2021/07/19 06:36:31;;;;;;;10.68;4.45;;;19.90;62.80;;;;;;3548139;40;20026;-65
2021/07/19 06:38:56;;;;;;;7.85;4.28;;;19.90;62.50;;;;;;3545662;40;20022;-65
2021/07/19 06:41:22;;;;;;;10.00;4.00;;;20.00;62.20;;;;;;3548443;40;20115;-65
2021/07/19 06:43:48;;;;;;;11.15;4.75;;;20.10;62.00;;;;;;3548239;40;20018;-65
2021/07/19 06:46:13;;;;;;;10.82;4.95;;;20.10;61.30;;;;;;3547568;40;20046;-65
2021/07/19 06:48:39;;;;;;;12.27;5.15;;;20.10;61.50;;;;;;3546308;40;20082;-66
2021/07/19 06:51:06;;;;;;;10.23;4.47;;;20.20;62.60;;;;;;3547150;40;20621;-66
2021/07/19 06:53:31;;;;;;;8.68;4.32;;;20.30;61.50;;;;;;3546554;40;20050;-66
2021/07/19 06:55:57;;;;;;;9.13;4.53;;;20.40;61.00;;;;;;3546504;40;20049;-66
2021/07/19 06:58:23;;;;;;;9.27;4.80;;;20.60;61.40;;;;;;3548183;40;20608;-66
2021/07/19 07:00:50;;;;;;;12.50;4.50;;;20.80;59.50;;;;;;3546311;40;20046;-66
2021/07/19 07:03:15;;;;;;;6.78;4.25;;;20.90;59.20;;;;;;3544954;40;20666;-66
2021/07/19 07:05:41;;;;;;;11.05;4.80;;;20.90;58.70;;;;;;3546127;40;20053;-66
2021/07/19 07:08:07;;;;;;;9.50;4.38;;;21.00;59.50;;;;;;3545864;40;20038;-66
2021/07/19 07:10:33;;;;;;;8.27;4.60;;;21.10;58.80;;;;;;3547924;40;20174;-65
2021/07/19 07:12:59;;;;;;;9.88;4.45;;;21.10;58.40;;;;;;3548610;40;20073;-65
2021/07/19 07:15:24;;;;;;;10.43;4.45;;;21.20;58.90;;;;;;3546291;40;20037;-66
2021/07/19 07:17:50;;;;;;;10.77;4.55;;;21.20;58.90;;;;;;3547713;40;20030;-66
2021/07/19 07:20:17;;;;;;;12.10;4.45;;;21.20;58.40;;;;;;3547313;40;20035;-66
2021/07/19 07:22:43;;;;;;;8.77;4.20;;;21.30;58.60;;;;;;3545881;40;20038;-66
2021/07/19 07:25:10;;;;;;;7.72;4.20;;;21.30;58.10;;;;;;3548670;40;20046;-66
2021/07/19 07:27:37;;;;;;;10.50;5.22;;;21.30;58.00;;;;;;3549751;40;20061;-65
2021/07/19 07:30:08;;;;;;;11.30;4.85;;;21.40;57.60;;;;;;3549307;40;20400;-65
2021/07/19 07:32:35;;;;;;;8.60;4.70;;;21.40;58.70;;;;;;3547029;40;20050;-64
2021/07/19 07:35:03;;;;;;;7.05;4.45;;;21.50;59.00;;;;;;3546419;40;20054;-66
2021/07/19 07:37:30;;;;;;;9.82;4.47;;;21.60;58.10;;;;;;3548966;40;21046;-66
2021/07/19 07:39:56;;;;;;;13.38;4.57;;;21.60;57.70;;;;;;3549463;40;20037;-64
2021/07/19 07:42:23;;;;;;;8.95;4.47;;;21.70;58.20;;;;;;3547147;40;20710;-66
2021/07/19 07:44:49;;;;;;;12.68;4.95;;;21.80;57.90;;;;;;3546646;40;20034;-66
2021/07/19 07:47:15;;;;;;;6.70;4.32;;;21.90;57.70;;;;;;3546182;40;20291;-66
2021/07/19 07:49:41;;;;;;;8.15;4.55;;;21.90;56.60;;;;;;3544690;40;20074;-65
2021/07/19 07:52:11;;;;;;;13.43;4.53;;;22.00;58.00;;;;;;3547415;40;20035;-66
2021/07/19 07:54:36;;;;;;;8.45;4.28;;;22.10;57.20;;;;;;3547416;40;20045;-66
2021/07/19 07:57:03;;;;;;;10.82;4.65;;;22.20;56.70;;;;;;3546565;40;20847;-66
2021/07/19 07:59:29;;;;;;;7.95;4.45;;;22.30;56.00;;;;;;3544978;40;20421;-66
2021/07/19 08:01:58;;;;;;;7.05;4.55;;;22.40;56.70;;;;;;3546818;40;20377;-66
2021/07/19 08:04:25;;;;;;;11.48;4.72;;;22.40;55.20;;;;;;3544407;40;20030;-66
2021/07/19 08:06:50;;;;;;;10.77;4.35;;;22.50;57.00;;;;;;3547579;40;20037;-66
2021/07/19 08:09:16;;;;;;;8.82;4.85;;;22.50;55.00;;;;;;3549179;40;20145;-66
2021/07/19 08:11:43;;;;;;;8.05;4.30;;;22.50;56.00;;;;;;3548991;40;20143;-66
2021/07/19 08:14:09;;;;;;;7.95;4.15;;;22.60;56.20;;;;;;3545744;40;20323;-68
2021/07/19 08:16:36;;;;;;;9.50;4.80;;;22.60;56.00;;;;;;3546990;40;20062;-66
2021/07/19 08:19:08;;;;;;;13.82;4.47;;;22.60;55.10;;;;;;3547123;40;20455;-66
2021/07/19 08:21:36;;;;;;;7.35;4.20;;;22.50;54.80;;;;;;3552745;40;20049;-66
2021/07/19 08:24:02;;;;;;;5.70;4.00;;;22.50;53.50;;;;;;3547468;40;20048;-66
2021/07/19 08:26:28;;;;;;;6.88;4.30;;;22.40;54.30;;;;;;3544591;40;20858;-66
2021/07/19 08:28:55;;;;;;;9.77;4.60;;;22.40;54.60;;;;;;3548327;40;20066;-67
2021/07/19 08:31:22;;;;;;;7.75;4.47;;;22.40;55.10;;;;;;3548480;40;20300;-66
2021/07/19 08:33:48;;;;;;;7.07;4.88;;;22.40;55.90;;;;;;3546374;40;20026;-66
2021/07/19 08:36:14;;;;;;;9.70;4.38;;;22.50;54.70;;;;;;3545264;40;20412;-66
2021/07/19 08:38:40;;;;;;;8.25;3.97;;;22.50;56.10;;;;;;3545506;40;20147;-66
2021/07/19 08:41:07;;;;;;;6.97;3.60;;;22.50;55.20;;;;;;3545170;40;20408;-66
2021/07/19 08:43:36;;;;;;;7.72;4.38;;;22.50;54.70;;;;;;3544943;40;20434;-66
2021/07/19 08:46:02;;;;;;;7.53;4.30;;;22.50;54.60;;;;;;3545440;40;20070;-66
2021/07/19 08:48:28;;;;;;;10.27;4.18;;;22.50;55.10;;;;;;3549410;40;20042;-66
2021/07/19 08:50:54;;;;;;;5.70;4.35;;;22.60;54.10;;;;;;3544780;40;20042;-66
2021/07/19 08:53:20;;;;;;;7.53;4.05;;;22.50;53.30;;;;;;3547848;40;20786;-67
2021/07/19 08:55:50;;;;;;;10.23;4.43;;;22.40;53.60;;;;;;3546569;40;20030;-67
2021/07/19 08:58:16;;;;;;;8.70;4.45;;;22.40;54.30;;;;;;3545971;40;20173;-65
2021/07/19 09:00:42;;;;;;;7.75;3.80;;;22.50;54.00;;;;;;3545288;40;20317;-66
2021/07/19 09:03:09;;;;;;;7.28;4.13;;;22.70;54.00;;;;;;3545592;40;20042;-66
2021/07/19 09:05:37;;;;;;;7.32;4.50;;;22.80;52.90;;;;;;3546413;40;20036;-66
2021/07/19 09:08:05;;;;;;;9.35;3.97;;;22.90;53.20;;;;;;3550005;40;20052;-67
2021/07/19 09:10:31;;;;;;;5.97;4.35;;;23.00;53.10;;;;;;3550443;40;20038;-66
2021/07/19 09:13:01;;;;;;;5.57;4.43;;;23.00;51.90;;;;;;3549396;40;20085;-66
2021/07/19 09:15:45;;;;;;;5.97;4.32;;;22.90;52.80;;;;;;3548308;40;20148;-66
2021/07/19 09:18:21;;;;;;;9.70;4.40;;;22.80;54.20;;;;;;3545680;40;20147;-66
2021/07/19 09:20:47;;;;;;;7.22;4.72;;;22.70;52.60;;;;;;3547694;40;20135;-66
2021/07/19 09:23:13;;;;;;;10.80;4.30;;;22.50;55.30;;;;;;3544760;40;20034;-68
2021/07/19 09:25:39;;;;;;;8.57;3.97;;;22.40;55.00;;;;;;3546199;40;20034;-68
2021/07/19 09:28:09;;;;;;;6.00;3.95;;;22.30;54.60;;;;;;3548521;40;20033;-66
2021/07/19 09:30:43;;;;;;;6.30;4.55;;;22.10;55.20;;;;;;3545433;40;20086;-66
2021/07/19 09:33:18;;;;;;;10.32;5.13;;;22.10;55.10;;;;;;3544839;40;20045;-67
2021/07/19 09:35:49;;;;;;;8.38;4.70;;;22.10;55.20;;;;;;3546407;40;20049;-66
2021/07/19 09:38:16;;;;;;;7.47;4.68;;;22.20;55.80;;;;;;3547011;40;20027;-70
2021/07/19 09:40:44;;;;;;;6.50;4.53;;;22.40;55.50;;;;;;3544056;40;20030;-66
2021/07/19 09:43:24;;;;;;;8.52;4.47;;;22.50;56.30;;;;;;3548401;40;20034;-66
2021/07/19 09:46:04;;;;;;;9.93;4.57;;;22.50;52.60;;;;;;3548290;40;20065;-67
2021/07/19 09:48:31;;;;;;;10.48;4.68;;;22.50;54.40;;;;;;3546919;40;20392;-66
2021/07/19 09:50:56;;;;;;;9.27;4.50;;;22.50;52.80;;;;;;3547526;40;20121;-66
2021/07/19 09:53:34;;;;;;;7.57;3.97;;;22.50;54.10;;;;;;3547182;40;20041;-67
2021/07/19 09:56:17;;;;;;;6.68;4.50;;;22.50;54.10;;;;;;3549024;40;20044;-66
2021/07/19 09:58:50;;;;;;;7.93;4.30;;;22.60;53.70;;;;;;3546395;40;20068;-67
2021/07/19 10:01:30;;;;;;;8.23;3.70;;;22.60;53.10;;;;;;3548208;40;20030;-66
2021/07/19 10:04:08;;;;;;;9.32;4.15;;;22.50;53.70;;;;;;3548979;40;20661;-66
2021/07/19 10:06:39;;;;;;;8.07;3.88;;;22.50;53.60;;;;;;3546953;40;20029;-66
2021/07/19 10:09:11;;;;;;;6.05;3.97;;;22.60;54.30;;;;;;3548247;40;20030;-66
2021/07/19 10:11:40;;;;;;;7.13;4.20;;;22.70;53.70;;;;;;3550645;40;20027;-66
2021/07/19 10:14:07;;;;;;;9.05;4.22;;;22.80;53.90;;;;;;3549658;40;20041;-66
2021/07/19 10:16:33;;;;;;;5.07;3.45;;;22.90;52.10;;;;;;3550835;40;20504;-66
2021/07/19 10:19:01;;;;;;;8.48;4.25;;;23.00;52.30;;;;;;3548770;40;20045;-66
2021/07/19 10:21:29;;;;;;;5.93;3.95;;;23.00;51.70;;;;;;3547283;40;20078;-72
2021/07/19 10:24:08;;;;;;;8.80;4.07;;;23.10;53.00;;;;;;3549257;40;20037;-70
2021/07/19 10:26:35;;;;;;;8.02;4.22;;;23.20;52.60;;;;;;3549563;40;20414;-67
2021/07/19 10:29:02;;;;;;;6.43;3.50;;;23.20;52.30;;;;;;3549230;40;20292;-66
2021/07/19 10:31:28;;;;;;;10.60;6.57;;;23.10;54.20;;;;;;3545849;40;20041;-66
2021/07/19 10:33:57;;;;;;;12.13;4.40;;;23.10;52.50;;;;;;3550115;40;20048;-66
2021/07/19 10:36:42;;;;;;;5.60;4.15;;;23.00;53.80;;;;;;3548439;40;20700;-66
2021/07/19 10:39:13;;;;;;;7.18;4.15;;;23.00;53.00;;;;;;3545334;40;20037;-66
2021/07/19 10:41:39;;;;;;;5.43;3.78;;;22.90;53.60;;;;;;3546636;40;20042;-66
2021/07/19 10:44:08;;;;;;;5.97;3.95;;;23.00;53.40;;;;;;3547593;40;20045;-66
2021/07/19 10:46:35;;;;;;;7.97;4.38;;;23.10;53.10;;;;;;3547906;40;20120;-66
2021/07/19 10:49:07;;;;;;;6.57;3.92;;;23.10;52.70;;;;;;3548213;40;20033;-67
2021/07/19 10:51:45;;;;;;;6.35;4.07;;;23.30;52.60;;;;;;3545904;40;20036;-66
2021/07/19 10:54:15;;;;;;;7.82;4.40;;;23.30;53.30;;;;;;3547141;40;20054;-66
2021/07/19 10:56:40;;;;;;;6.97;4.25;;;23.50;52.80;;;;;;3544302;40;20301;-66
2021/07/19 10:59:07;;;;;;;7.03;3.60;;;23.50;53.60;;;;;;3546987;40;20048;-66
2021/07/19 11:01:33;;;;;;;5.85;3.63;;;23.50;50.30;;;;;;3545834;40;20376;-66
2021/07/19 11:04:00;;;;;;;6.70;3.88;;;23.50;52.00;;;;;;3547883;40;20090;-66
2021/07/19 11:06:35;;;;;;;5.88;3.30;;;23.50;52.70;;;;;;3548524;40;20031;-71
2021/07/19 11:09:03;;;;;;;6.05;3.17;;;23.60;53.00;;;;;;3544652;40;20050;-69
2021/07/19 11:11:30;;;;;;;6.93;3.45;;;23.60;51.50;;;;;;3547663;40;20068;-66
2021/07/19 11:13:57;;;;;;;6.97;3.47;;;23.60;51.20;;;;;;3545900;40;20033;-67
2021/07/19 11:16:23;;;;;;;7.13;3.30;;;23.50;51.50;;;;;;3545381;40;20991;-66
2021/07/19 11:18:57;;;;;;;4.82;3.40;;;23.40;52.10;;;;;;3550077;40;20042;-69
2021/07/19 11:21:26;;;;;;;6.85;3.60;;;23.30;52.30;;;;;;3547661;40;20038;-69
2021/07/19 11:23:52;;;;;;;6.85;3.60;;;23.20;52.50;;;;;;3547112;40;20037;-65
2021/07/19 11:26:24;;;;;;;8.52;3.60;;;23.20;53.00;;;;;;3547823;40;20050;-68
2021/07/19 11:28:50;;;;;;;6.80;3.83;;;23.00;53.10;;;;;;3542098;40;20797;-65
2021/07/19 11:31:26;;;;;;;5.90;3.75;;;23.00;53.40;;;;;;3548374;40;20034;-64
2021/07/19 11:34:03;;;;;;;6.45;3.80;;;23.00;54.20;;;;;;3548876;40;20050;-65
2021/07/19 11:36:29;;;;;;;8.27;3.78;;;23.10;53.10;;;;;;3547860;40;20194;-65
2021/07/19 11:38:58;;;;;;;5.55;3.83;;;23.10;53.70;;;;;;3546671;40;20031;-65
2021/07/19 11:41:26;;;;;;;5.20;3.20;;;23.20;53.30;;;;;;3547464;40;20046;-65
2021/07/19 11:43:57;;;;;;;4.68;3.58;;;23.20;53.00;;;;;;3549727;40;20163;-64
2021/07/19 11:46:46;;;;;;;4.97;3.90;;;23.10;53.10;;;;;;3547155;40;20120;-64
2021/07/19 11:49:14;;;;;;;5.60;3.45;;;23.10;52.60;;;;;;3546106;40;20119;-64
2021/07/19 11:51:44;;;;;;;8.02;3.78;;;23.00;52.10;;;;;;3544980;40;20030;-65
2021/07/19 11:54:12;;;;;;;6.60;3.70;;;23.00;53.00;;;;;;3544599;40;20062;-64
2021/07/19 11:56:49;;;;;;;4.93;3.53;;;23.10;53.90;;;;;;3546798;40;20418;-64
2021/07/19 11:59:20;;;;;;;4.85;3.35;;;23.10;53.60;;;;;;3545165;40;20447;-64
2021/07/19 12:02:00;;;;;;;5.22;3.40;;;23.20;55.40;;;;;;3545909;40;20335;-64
2021/07/19 12:04:40;;;;;;;5.85;3.20;;;23.30;53.30;;;;;;3547100;40;20042;-65
2021/07/19 12:07:07;;;;;;;4.50;3.47;;;23.40;52.90;;;;;;3547474;40;20088;-66
2021/07/19 12:09:34;;;;;;;6.03;3.47;;;23.40;53.50;;;;;;3547887;40;20123;-65
2021/07/19 12:12:02;;;;;;;6.97;3.67;;;23.40;53.40;;;;;;3545776;40;20622;-66
2021/07/19 12:14:28;;;;;;;6.50;3.40;;;23.50;52.70;;;;;;3545303;40;20053;-66
2021/07/19 12:16:54;;;;;;;6.43;3.60;;;23.50;52.50;;;;;;3544924;40;20327;-67
2021/07/19 12:19:21;;;;;;;6.07;3.47;;;23.50;52.70;;;;;;3547759;40;20038;-66
2021/07/19 12:21:55;;;;;;;4.68;3.00;;;23.40;52.70;;;;;;3546377;40;20034;-65
2021/07/19 12:24:25;;;;;;;4.63;3.53;;;23.40;52.30;;;;;;3547728;40;20070;-65
2021/07/19 12:26:56;;;;;;;5.70;4.10;;;23.40;54.40;;;;;;3545609;40;20045;-66
2021/07/19 12:29:26;;;;;;;4.32;3.42;;;23.50;53.30;;;;;;3548764;40;20105;-65
2021/07/19 12:31:53;;;;;;;5.68;3.38;;;23.50;52.60;;;;;;3547892;40;20039;-65
2021/07/19 12:34:22;;;;;;;5.38;3.35;;;23.50;51.90;;;;;;3545934;40;20393;-66
2021/07/19 12:37:03;;;;;;;4.50;3.60;;;23.60;52.10;;;;;;3548847;40;20610;-65
2021/07/19 12:39:31;;;;;;;5.93;3.78;;;23.50;52.30;;;;;;3545829;40;20029;-65
2021/07/19 12:41:58;;;;;;;5.40;3.40;;;23.50;53.00;;;;;;3546625;40;20042;-65
2021/07/19 12:44:29;;;;;;;5.78;3.72;;;23.60;54.00;;;;;;3546814;40;20132;-65
2021/07/19 12:46:56;;;;;;;7.10;4.15;;;23.70;52.40;;;;;;3545230;40;20096;-66
2021/07/19 12:49:41;;;;;;;6.55;3.95;;;23.70;52.50;;;;;;3548552;40;20441;-66
2021/07/19 12:52:19;;;;;;;4.50;3.50;;;23.80;53.00;;;;;;3546578;40;20030;-66